Sao Goncalo do Sapucai, Brazil
Current Conditions -  °F | °C
As of 11:00 AM on Monday 22 Dec 2014 (Local Time) from SBGW Reporting Station
Scattered Clouds Scattered Clouds  
Wind Chill: 86°   Ceiling: Unl
Heat Index: 89°   Visibility: 6mi
Dew Point: 68°   Wind: 2mph
Humidity: 55%   Direction: 70°ENE
Pressure: 29.94"   Gusts: NA
Location:  21.89°S, 45.6°W
Report Text: SBGW 221300Z 07002KT 9999 SCT020 SCT100 30/20 Q1014
Loading
Personal Weather Stations






























Interactive Weather Map New forecast layout! Learn more

10-Day Weather Forecast

Advertisements
Track Severe Weather on mobile